96CO weather

Logan Airport
Bennet, Colorado, United States

Public forecast

Using degrees Fahrenheit for public forecast. Weather courtesy of forecast.io.

METAR (pilot weather report)

Closest report is Front Range Airport, 8.0 nm (14.8 km) WSW. Retrieved 2019/04/24 09:36 UTC (13 minutes ago):

KFTG 240936Z AUTO 23008KT 10SM CLR 10/03 A3000 RMK AO2 T01010030

TAF (pilot weather forecast)

Closest forecast is Denver International Airport, 12.8 nm (23.7 km) W. Retrieved 2019/04/24 06:33 UTC (3 hours ago):

TAF KDEN 240530Z 2406/2512 20008KT P6SM FEW140 FM241100 24008KT P6SM SKC FM241600 34007KT P6SM SKC FM241800 02007KT P6SM SCT120 FM250000 33006KT P6SM BKN100 FM250800 01014G22KT P6SM BKN025